LIMC/MXP METAR and TAF weather

Enter ICAO airport designator
Station Type Date Time Source
LIMC METAR 2019/05/19 20:20 UTC NOAA

LIMC 192020Z 36005KT 9999 BKN060 13/12 Q1006 NOSIG


Station Type Date Time Source
LIMC Decoded METAR 2019/05/19 20:20 UTC NOAA

Milano / Malpensa, Italy (LIMC) 45-37N 008-44E 211M
May 19, 2019 - 04:20 PM EDT / 2019.05.19 2020 UTC
Wind: from the N (360 degrees) at 6 MPH (5 KT):0
Visibility: greater than 7 mile(s):0
Sky conditions: mostly cloudy
Temperature: 55 F (13 C)
Dew Point: 53 F (12 C)
Relative Humidity: 93%
Pressure (altimeter): 29.71 in. Hg (1006 hPa)
ob: LIMC 192020Z 36005KT 9999 BKN060 13/12 Q1006 NOSIG
cycle: 20

Station Type Date Time Source
LIMC TAF 2019/05/19 18:22 UTC NOAA

TAF LIMC 191700Z 1918/2024 VRB05KT 9999 SCT020 BKN050
TEMPO 1918/2012 4000 RA

Example: see airport list